Time;durP1;ratioP1;P1;durP2;ratioP2;P2;SDS_P1;SDS_P2;PMS_P1;PMS_P2;Temp;Humidity;BMP_temperature;BMP_pressure;BME280_temperature;BME280_humidity;BME280_pressure;Samples;Min_cycle;Max_cycle;Signal;HPM_P1;HPM_P2
2023/08/24 00:02:02;;;;;;;;;;;;;;;20.18;89.83;96717.81;5027503;28;19958;-72
2023/08/24 00:04:28;;;;;;;;;;;;;;;20.15;90.00;96709.56;5043548;28;19954;-73
2023/08/24 00:06:54;;;;;;;;;;;;;;;20.12;90.19;96708.25;5044976;28;19953;-72
2023/08/24 00:09:20;;;;;;;;;;;;;;;20.08;90.35;96707.19;5044691;28;19979;-71
2023/08/24 00:11:46;;;;;;;;;;;;;;;20.05;90.68;96702.41;5044783;28;19961;-72
2023/08/24 00:14:12;;;;;;;;;;;;;;;20.02;90.85;96708.28;5044394;28;20153;-71
2023/08/24 00:16:38;;;;;;;;;;;;;;;19.99;90.81;96698.16;5044973;28;19958;-71
2023/08/24 00:19:04;;;;;;;;;;;;;;;19.96;91.28;96698.72;5044755;28;19963;-71
2023/08/24 00:21:30;;;;;;;;;;;;;;;19.93;91.28;96700.06;5045577;28;19958;-71
2023/08/24 00:23:56;;;;;;;;;;;;;;;19.90;90.99;96697.13;5045011;28;19942;-75
2023/08/24 00:26:23;;;;;;;;;;;;;;;19.87;91.37;96695.81;5044745;28;20013;-82
2023/08/24 00:28:49;;;;;;;;;;;;;;;19.86;91.81;96697.69;5026579;28;19956;-82
2023/08/24 00:31:15;;;;;;;;;;;;;;;19.86;91.07;96688.88;5044487;28;19965;-82
2023/08/24 00:33:41;;;;;;;;;;;;;;;19.84;90.74;96691.84;5026970;28;19956;-82
2023/08/24 00:36:07;;;;;;;;;;;;;;;19.83;90.83;96700.88;5044364;28;19959;-83
2023/08/24 00:38:33;;;;;;;;;;;;;;;19.82;90.80;96698.47;5044301;28;20261;-83
2023/08/24 00:40:59;;;;;;;;;;;;;;;19.79;90.91;96691.06;5044450;28;19953;-73
2023/08/24 00:43:25;;;;;;;;;;;;;;;19.76;91.54;96689.72;5049397;28;19963;-72
2023/08/24 00:45:51;;;;;;;;;;;;;;;19.76;91.73;96681.75;5051118;28;19954;-71
2023/08/24 00:48:18;;;;;;;;;;;;;;;19.74;91.69;96669.75;5051165;28;19964;-72
2023/08/24 00:50:44;;;;;;;;;;;;;;;19.74;92.02;96683.06;5051036;28;19961;-72
2023/08/24 00:53:10;;;;;;;;;;;;;;;19.71;92.36;96673.78;5032933;28;20010;-72
2023/08/24 00:55:36;;;;;;;;;;;;;;;19.70;93.33;96674.00;5050893;28;19960;-72
2023/08/24 00:58:03;;;;;;;;;;;;;;;19.70;92.93;96674.84;5050662;28;19955;-71
2023/08/24 01:00:28;;;;;;;;;;;;;;;19.69;92.65;96678.53;5051319;28;19961;-74
2023/08/24 01:02:55;;;;;;;;;;;;;;;19.67;92.24;96678.00;5050425;28;20086;-70
2023/08/24 01:05:20;;;;;;;;;;;;;;;19.66;92.44;96677.22;5050679;28;20232;-69
2023/08/24 01:07:47;;;;;;;;;;;;;;;19.66;93.13;96676.44;5050727;28;19998;-69
2023/08/24 01:10:13;;;;;;;;;;;;;;;19.64;93.21;96667.91;5050592;28;19971;-70
2023/08/24 01:12:52;;;;;;;;;;;;;;;19.63;93.88;96667.13;5050782;28;19956;-69
2023/08/24 01:15:39;;;;;;;;;;;;;;;19.61;94.07;96673.75;5050943;28;19957;-70
2023/08/24 01:18:07;;;;;;;;;;;;;;;19.57;94.07;96664.72;5033422;28;19976;-75
2023/08/24 01:20:34;;;;;;;;;;;;;;;19.55;94.99;96670.34;5033260;28;20025;-70
2023/08/24 01:23:05;;;;;;;;;;;;;;;19.51;95.07;96660.47;5050689;28;20252;-70
2023/08/24 01:25:31;;;;;;;;;;;;;;;19.47;95.16;96662.91;5050473;28;20143;-69
2023/08/24 01:27:58;;;;;;;;;;;;;;;19.44;95.65;96666.09;5050656;28;19986;-70
2023/08/24 01:30:25;;;;;;;;;;;;;;;19.41;96.04;96664.75;5050493;28;19959;-69
2023/08/24 01:32:52;;;;;;;;;;;;;;;19.38;95.81;96653.84;5050194;28;19979;-70
2023/08/24 01:35:17;;;;;;;;;;;;;;;19.35;95.84;96652.53;5050679;28;19954;-82
2023/08/24 01:37:43;;;;;;;;;;;;;;;19.32;96.44;96653.09;5050603;28;19959;-70
2023/08/24 01:40:12;;;;;;;;;;;;;;;19.29;96.99;96658.94;5050927;28;19964;-72
2023/08/24 01:42:45;;;;;;;;;;;;;;;19.25;97.17;96653.34;5050887;28;19947;-72
2023/08/24 01:45:11;;;;;;;;;;;;;;;19.22;97.00;96653.09;5050231;28;19963;-73
2023/08/24 01:47:39;;;;;;;;;;;;;;;19.20;97.45;96656.03;5050242;28;19965;-72
2023/08/24 01:50:05;;;;;;;;;;;;;;;19.19;96.68;96650.97;5050722;28;19972;-72
2023/08/24 01:52:32;;;;;;;;;;;;;;;19.16;96.91;96651.50;5050131;28;20173;-72
2023/08/24 01:54:58;;;;;;;;;;;;;;;19.15;96.90;96644.59;5046367;28;19967;-72
2023/08/24 01:57:24;;;;;;;;;;;;;;;19.12;97.83;96663.75;5047446;28;19951;-75
2023/08/24 01:59:49;;;;;;;;;;;;;;;19.08;98.20;96657.38;5029493;28;19965;-76
2023/08/24 02:02:16;;;;;;;;;;;;;;;19.04;98.42;96649.13;5047414;28;19967;-75
2023/08/24 02:04:42;;;;;;;;;;;;;;;19.01;98.27;96647.00;5047313;28;20148;-76
2023/08/24 02:07:08;;;;;;;;;;;;;;;18.99;99.10;96646.47;5029359;28;19958;-75
2023/08/24 02:09:34;;;;;;;;;;;;;;;18.96;99.17;96631.03;5047112;28;19995;-76
2023/08/24 02:12:00;;;;;;;;;;;;;;;18.93;99.25;96632.38;5029808;28;20204;-75
2023/08/24 02:14:26;;;;;;;;;;;;;;;18.91;99.62;96628.41;5046764;28;19962;-75
2023/08/24 02:16:51;;;;;;;;;;;;;;;18.89;99.81;96633.97;5029092;28;19964;-74
2023/08/24 02:19:17;;;;;;;;;;;;;;;18.87;99.80;96630.78;5046804;28;19954;-77
2023/08/24 02:21:43;;;;;;;;;;;;;;;18.85;99.69;96630.25;5045356;28;20000;-75
2023/08/24 02:24:09;;;;;;;;;;;;;;;18.83;100.00;96638.50;5046629;28;19995;-75
2023/08/24 02:26:35;;;;;;;;;;;;;;;18.82;100.00;96644.09;5046649;28;19955;-73
2023/08/24 02:29:01;;;;;;;;;;;;;;;18.79;100.00;96632.13;5046596;28;19959;-76
2023/08/24 02:31:27;;;;;;;;;;;;;;;18.77;100.00;96631.56;5029131;28;20189;-71
2023/08/24 02:33:52;;;;;;;;;;;;;;;18.76;100.00;96637.16;5046665;28;20164;-83
2023/08/24 02:36:18;;;;;;;;;;;;;;;18.74;100.00;96631.31;5046919;28;19962;-82
2023/08/24 02:38:44;;;;;;;;;;;;;;;18.72;100.00;96626.25;5046620;28;19969;-80
2023/08/24 02:41:10;;;;;;;;;;;;;;;18.73;100.00;96609.25;5046110;28;20019;-78
2023/08/24 02:43:37;;;;;;;;;;;;;;;18.74;100.00;96602.88;5028490;28;19973;-82
2023/08/24 02:46:03;;;;;;;;;;;;;;;18.79;100.00;96615.38;5046568;28;19961;-82
2023/08/24 02:48:30;;;;;;;;;;;;;;;18.82;99.40;96620.97;5046064;28;19958;-81
2023/08/24 02:50:59;;;;;;;;;;;;;;;18.82;100.00;96613.00;5046036;28;20134;-74
2023/08/24 02:53:25;;;;;;;;;;;;;;;18.83;99.79;96608.47;5028444;28;20348;-73
2023/08/24 02:55:51;;;;;;;;;;;;;;;18.86;100.00;96623.91;5046446;28;19944;-72
2023/08/24 02:58:17;;;;;;;;;;;;;;;18.88;100.00;96620.94;5046063;28;20161;-73
2023/08/24 03:00:43;;;;;;;;;;;;;;;18.91;98.86;96607.94;5046155;28;19958;-73
2023/08/24 03:03:09;;;;;;;;;;;;;;;18.90;99.82;96611.66;5046107;28;19978;-73
2023/08/24 03:05:35;;;;;;;;;;;;;;;18.86;99.70;96611.41;5045815;28;19956;-73
2023/08/24 03:08:01;;;;;;;;;;;;;;;18.81;100.00;96611.38;5046050;28;19981;-80
2023/08/24 03:10:27;;;;;;;;;;;;;;;18.80;100.00;96607.16;5027849;28;20218;-81
2023/08/24 03:12:52;;;;;;;;;;;;;;;18.82;100.00;96609.53;5046047;28;19963;-81
2023/08/24 03:15:18;;;;;;;;;;;;;;;18.83;100.00;96601.28;5028357;28;19957;-84
2023/08/24 03:17:44;;;;;;;;;;;;;;;18.82;100.00;96594.41;5045511;28;19953;-81
2023/08/24 03:20:10;;;;;;;;;;;;;;;18.84;100.00;96594.94;5027843;28;20266;-81
2023/08/24 03:22:36;;;;;;;;;;;;;;;18.88;100.00;96589.06;5045837;28;19954;-81
2023/08/24 03:25:02;;;;;;;;;;;;;;;18.90;99.39;96584.28;5027971;28;19996;-82
2023/08/24 03:27:28;;;;;;;;;;;;;;;18.92;99.13;96576.84;5045504;28;20149;-71
2023/08/24 03:29:54;;;;;;;;;;;;;;;18.93;99.65;96584.56;5045444;28;19961;-75
2023/08/24 03:32:20;;;;;;;;;;;;;;;18.93;100.00;96578.44;5045645;28;19958;-78
2023/08/24 03:34:46;;;;;;;;;;;;;;;18.93;100.00;96578.44;5027880;28;19997;-77
2023/08/24 03:37:12;;;;;;;;;;;;;;;18.92;100.00;96571.53;5045475;28;19960;-77
2023/08/24 03:39:38;;;;;;;;;;;;;;;18.90;100.00;96573.66;5045442;28;19957;-77
2023/08/24 03:42:04;;;;;;;;;;;;;;;18.89;100.00;96570.19;5027253;28;19953;-76
2023/08/24 03:44:30;;;;;;;;;;;;;;;18.87;100.00;96572.34;5045057;28;19959;-71
2023/08/24 03:46:56;;;;;;;;;;;;;;;18.85;100.00;96569.94;5045228;28;19961;-78
2023/08/24 03:49:21;;;;;;;;;;;;;;;18.86;100.00;96571.53;5027763;28;19980;-76
2023/08/24 03:51:48;;;;;;;;;;;;;;;18.86;100.00;96571.53;5044913;28;20150;-77
2023/08/24 03:54:13;;;;;;;;;;;;;;;18.85;100.00;96569.13;5044998;28;19964;-77
2023/08/24 03:56:39;;;;;;;;;;;;;;;18.84;100.00;96557.72;5043730;28;19960;-77
2023/08/24 03:59:05;;;;;;;;;;;;;;;18.84;100.00;96554.28;5044922;28;19960;-78
2023/08/24 04:01:31;;;;;;;;;;;;;;;18.85;100.00;96563.81;5044586;28;19966;-77
2023/08/24 04:03:57;;;;;;;;;;;;;;;18.83;100.00;96564.09;5027161;28;20031;-74
2023/08/24 04:06:23;;;;;;;;;;;;;;;18.82;100.00;96559.84;5045015;28;19958;-77
2023/08/24 04:08:49;;;;;;;;;;;;;;;18.82;100.00;96564.38;5044916;28;19961;-77
2023/08/24 04:11:15;;;;;;;;;;;;;;;18.82;100.00;96561.72;5045080;28;20175;-77
2023/08/24 04:13:41;;;;;;;;;;;;;;;18.82;100.00;96561.72;5011189;28;20153;-77
2023/08/24 04:16:07;;;;;;;;;;;;;;;18.83;100.00;96564.09;5044374;28;19961;-78
2023/08/24 04:18:33;;;;;;;;;;;;;;;18.83;100.00;96563.31;5043862;28;20278;-78
2023/08/24 04:20:59;;;;;;;;;;;;;;;18.84;100.00;96570.22;5044514;28;20137;-71
2023/08/24 04:23:28;;;;;;;;;;;;;;;18.83;100.00;96566.75;5044568;28;19955;-72
2023/08/24 04:25:54;;;;;;;;;;;;;;;18.82;100.00;96562.50;5044554;28;20246;-72
2023/08/24 04:28:20;;;;;;;;;;;;;;;18.82;100.00;96559.84;5044795;28;19966;-73
2023/08/24 04:30:53;;;;;;;;;;;;;;;18.81;100.00;96560.91;5044089;28;19969;-72
2023/08/24 04:33:19;;;;;;;;;;;;;;;18.79;100.00;96555.09;5044682;28;19967;-72
2023/08/24 04:35:46;;;;;;;;;;;;;;;18.78;100.00;96550.00;5044633;28;20133;-72
2023/08/24 04:38:12;;;;;;;;;;;;;;;18.75;100.00;96539.91;5026702;28;19979;-72
2023/08/24 04:40:52;;;;;;;;;;;;;;;18.70;100.00;96548.66;5044621;28;19957;-70
2023/08/24 04:43:19;;;;;;;;;;;;;;;18.65;100.00;96538.84;5044236;28;20130;-73
2023/08/24 04:45:52;;;;;;;;;;;;;;;18.64;100.00;96533.81;5044194;28;19961;-73
2023/08/24 04:48:18;;;;;;;;;;;;;;;18.62;100.00;96533.28;5026933;28;19960;-73
2023/08/24 04:50:44;;;;;;;;;;;;;;;18.61;100.00;96537.78;5043994;28;19962;-73
2023/08/24 04:53:12;;;;;;;;;;;;;;;18.63;100.00;96540.19;5026619;28;19963;-73
2023/08/24 04:55:38;;;;;;;;;;;;;;;18.62;100.00;96541.25;5044272;28;19976;-73
2023/08/24 04:58:04;;;;;;;;;;;;;;;18.63;100.00;96546.28;5044338;28;19961;-70
2023/08/24 05:00:32;;;;;;;;;;;;;;;18.63;100.00;96546.28;5044493;28;19962;-80
2023/08/24 05:02:58;;;;;;;;;;;;;;;18.65;100.00;96546.03;5043894;28;19945;-83
2023/08/24 05:05:24;;;;;;;;;;;;;;;18.66;100.00;96548.41;5026407;28;19959;-82
2023/08/24 05:07:50;;;;;;;;;;;;;;;18.68;100.00;96545.47;5044614;28;19954;-82
2023/08/24 05:10:16;;;;;;;;;;;;;;;18.71;100.00;96544.97;5043806;28;19968;-83
2023/08/24 05:12:42;;;;;;;;;;;;;;;18.72;100.00;96535.91;5044001;28;19961;-82
2023/08/24 05:15:08;;;;;;;;;;;;;;;18.75;100.00;96550.53;5044308;28;19956;-82
2023/08/24 05:17:34;;;;;;;;;;;;;;;18.78;100.00;96547.34;5044048;28;19950;-82
2023/08/24 05:20:00;;;;;;;;;;;;;;;18.76;100.00;96544.16;5043947;28;20270;-83
2023/08/24 05:22:25;;;;;;;;;;;;;;;18.73;100.00;96539.38;5026506;28;19973;-84
2023/08/24 05:24:51;;;;;;;;;;;;;;;18.75;100.00;96538.06;5026428;28;19959;-82
2023/08/24 05:27:17;;;;;;;;;;;;;;;18.78;100.00;96536.72;5026272;28;19961;-81
2023/08/24 05:29:43;;;;;;;;;;;;;;;18.81;100.00;96539.66;5047294;28;19989;-83
2023/08/24 05:32:09;;;;;;;;;;;;;;;18.84;100.00;96533.03;5047770;28;20202;-82
2023/08/24 05:34:35;;;;;;;;;;;;;;;18.89;100.00;96522.38;5047409;28;19951;-82
2023/08/24 05:37:01;;;;;;;;;;;;;;;18.93;100.00;96522.63;5029615;28;19963;-70
2023/08/24 05:39:26;;;;;;;;;;;;;;;18.96;100.00;96522.09;5047223;28;19958;-77
2023/08/24 05:41:53;;;;;;;;;;;;;;;19.00;100.00;96523.13;5030005;28;19961;-77
2023/08/24 05:44:19;;;;;;;;;;;;;;;19.04;100.00;96518.88;5047433;28;19954;-77
2023/08/24 05:46:46;;;;;;;;;;;;;;;19.09;100.00;96526.03;5047653;28;19965;-77
2023/08/24 05:49:11;;;;;;;;;;;;;;;19.14;100.00;96520.72;5047012;28;19954;-78
2023/08/24 05:51:37;;;;;;;;;;;;;;;19.16;100.00;96527.34;5047498;28;19999;-77
2023/08/24 05:54:03;;;;;;;;;;;;;;;19.20;100.00;96524.97;5047527;28;19951;-71
2023/08/24 05:56:29;;;;;;;;;;;;;;;19.23;100.00;96513.75;5029631;28;19963;-78
2023/08/24 05:58:56;;;;;;;;;;;;;;;19.24;100.00;96518.81;5047367;28;19959;-78
2023/08/24 06:01:22;;;;;;;;;;;;;;;19.27;100.00;96510.28;5029300;28;19967;-78
2023/08/24 06:03:49;;;;;;;;;;;;;;;19.29;100.00;96512.69;5046794;28;19943;-78
2023/08/24 06:06:15;;;;;;;;;;;;;;;19.31;100.00;96521.19;5029159;28;19970;-76
2023/08/24 06:08:41;;;;;;;;;;;;;;;19.34;100.00;96518.00;5046690;28;19954;-77
2023/08/24 06:11:07;;;;;;;;;;;;;;;19.36;100.00;96513.22;5029030;28;19966;-75
2023/08/24 06:13:33;;;;;;;;;;;;;;;19.38;100.00;96502.28;5047284;28;19996;-81
2023/08/24 06:15:58;;;;;;;;;;;;;;;19.40;100.00;96511.59;5028916;28;19964;-84
2023/08/24 06:18:24;;;;;;;;;;;;;;;19.43;100.00;96510.25;5046863;28;19961;-84
2023/08/24 06:20:50;;;;;;;;;;;;;;;19.46;100.00;96507.84;5046869;28;19961;-84
2023/08/24 06:23:17;;;;;;;;;;;;;;;19.51;100.00;96507.03;5029022;28;19957;-85
2023/08/24 06:25:43;;;;;;;;;;;;;;;19.53;100.00;96512.88;5046941;28;19960;-84
2023/08/24 06:28:09;;;;;;;;;;;;;;;19.57;100.00;96519.22;5046869;28;19962;-85
2023/08/24 06:30:39;;;;;;;;;;;;;;;19.60;100.00;96517.88;5046771;28;19958;-74
2023/08/24 06:33:05;;;;;;;;;;;;;;;19.62;100.00;96513.09;5046754;28;19953;-83
2023/08/24 06:35:32;;;;;;;;;;;;;;;19.65;100.00;96515.19;5028923;28;19983;-85
2023/08/24 06:37:58;;;;;;;;;;;;;;;19.67;100.00;96519.19;5012590;28;20276;-84
2023/08/24 06:40:23;;;;;;;;;;;;;;;19.72;100.00;96529.03;5027936;28;19971;-83
2023/08/24 06:42:49;;;;;;;;;;;;;;;19.78;100.00;96535.09;5029009;28;19955;-84
2023/08/24 06:45:16;;;;;;;;;;;;;;;19.80;100.00;96532.97;5046512;28;19962;-83
2023/08/24 06:47:42;;;;;;;;;;;;;;;19.81;100.00;96534.56;5012499;28;20136;-84
2023/08/24 06:50:08;;;;;;;;;;;;;;;19.82;100.00;96533.47;5012303;28;19963;-73
2023/08/24 06:52:34;;;;;;;;;;;;;;;19.82;100.00;96538.81;5028661;28;19962;-82
2023/08/24 06:55:01;;;;;;;;;;;;;;;19.83;100.00;96557.16;5028474;28;20011;-83
2023/08/24 06:57:26;;;;;;;;;;;;;;;19.86;100.00;96555.81;5046391;28;19949;-82
2023/08/24 06:59:52;;;;;;;;;;;;;;;19.87;100.00;96546.78;5028177;28;20005;-83
2023/08/24 07:02:18;;;;;;;;;;;;;;;19.94;100.00;96557.13;5046629;28;19950;-83
2023/08/24 07:04:44;;;;;;;;;;;;;;;19.98;100.00;96558.94;5046269;28;19964;-83
2023/08/24 07:07:10;;;;;;;;;;;;;;;20.03;100.00;96561.59;5012240;28;19961;-70
2023/08/24 07:09:36;;;;;;;;;;;;;;;20.08;100.00;96534.94;5046145;28;19961;-74
2023/08/24 07:12:03;;;;;;;;;;;;;;;20.15;100.00;96536.47;5045673;28;19990;-73
2023/08/24 07:14:29;;;;;;;;;;;;;;;20.24;100.00;96524.97;5046018;28;19962;-74
2023/08/24 07:16:54;;;;;;;;;;;;;;;20.42;100.00;96520.81;5045682;28;19953;-75
2023/08/24 07:19:20;;;;;;;;;;;;;;;20.67;100.00;96514.50;5045696;28;20121;-74
2023/08/24 07:21:46;;;;;;;;;;;;;;;20.83;100.00;96511.69;5045750;28;19950;-74
2023/08/24 07:24:12;;;;;;;;;;;;;;;20.97;100.00;96503.84;5045680;28;20003;-74
2023/08/24 07:26:39;;;;;;;;;;;;;;;21.01;100.00;96507.53;5028104;28;19970;-80
2023/08/24 07:29:05;;;;;;;;;;;;;;;21.00;100.00;96517.41;5045897;28;19967;-74
2023/08/24 07:31:31;;;;;;;;;;;;;;;21.11;100.00;96506.63;5045111;28;19979;-74
2023/08/24 07:33:58;;;;;;;;;;;;;;;21.29;100.00;96505.88;5045230;28;20134;-74
2023/08/24 07:36:24;;;;;;;;;;;;;;;21.63;99.70;96488.94;5028202;28;19964;-74
2023/08/24 07:38:50;;;;;;;;;;;;;;;21.99;97.10;96478.53;5027894;28;19961;-74
2023/08/24 07:41:18;;;;;;;;;;;;;;;22.35;95.66;96474.56;5045099;28;19958;-74
2023/08/24 07:43:44;;;;;;;;;;;;;;;22.65;91.53;96452.63;5045266;28;19956;-70
2023/08/24 07:46:09;;;;;;;;;;;;;;;22.92;92.23;96450.28;5045182;28;20011;-75
2023/08/24 07:48:36;;;;;;;;;;;;;;;23.21;90.28;96445.44;5045042;28;19962;-76
2023/08/24 07:51:01;;;;;;;;;;;;;;;23.49;87.57;96438.13;5026918;28;19970;-75
2023/08/24 07:53:27;;;;;;;;;;;;;;;23.77;86.26;96431.94;5044505;28;20181;-75
2023/08/24 07:55:55;;;;;;;;;;;;;;;24.04;86.30;96439.09;5027252;28;20021;-75
2023/08/24 07:58:21;;;;;;;;;;;;;;;24.26;84.87;96428.34;5045110;28;19955;-75
2023/08/24 08:00:49;;;;;;;;;;;;;;;24.46;84.33;96424.38;5044634;28;19945;-75
2023/08/24 08:03:15;;;;;;;;;;;;;;;24.63;77.66;96379.97;5045319;28;19972;-73
2023/08/24 08:05:41;;;;;;;;;;;;;;;24.76;82.62;96427.38;5045116;28;19951;-80
2023/08/24 08:08:07;;;;;;;;;;;;;;;24.89;81.98;96426.47;5027396;28;20010;-80
2023/08/24 08:10:32;;;;;;;;;;;;;;;25.03;79.19;96414.81;5044600;28;19960;-80
2023/08/24 08:12:58;;;;;;;;;;;;;;;25.15;79.85;96423.06;5044558;28;19966;-80
2023/08/24 08:15:24;;;;;;;;;;;;;;;25.22;80.85;96431.50;5044708;28;19993;-80
2023/08/24 08:17:50;;;;;;;;;;;;;;;25.29;80.80;96431.81;5027182;28;20001;-79
2023/08/24 08:20:16;;;;;;;;;;;;;;;25.46;80.94;96436.41;5044273;28;19960;-73
2023/08/24 08:22:42;;;;;;;;;;;;;;;25.59;82.30;96450.78;5044746;28;19953;-71
2023/08/24 08:25:08;;;;;;;;;;;;;;;25.69;77.53;96412.88;5044760;28;19963;-84
2023/08/24 08:27:34;;;;;;;;;;;;;;;25.81;79.60;96435.66;5026960;28;19957;-84
2023/08/24 08:30:00;;;;;;;;;;;;;;;25.93;77.87;96417.00;5026879;28;19960;-84
2023/08/24 08:32:27;;;;;;;;;;;;;;;26.03;78.60;96419.38;5044845;28;20054;-83
2023/08/24 08:34:58;;;;;;;;;;;;;;;26.07;75.48;96406.88;5044815;28;19961;-84
2023/08/24 08:37:24;;;;;;;;;;;;;;;26.09;76.30;96410.03;5044380;28;19967;-82
2023/08/24 08:39:49;;;;;;;;;;;;;;;26.16;76.90;96414.91;5044271;28;19956;-73
2023/08/24 08:42:15;;;;;;;;;;;;;;;26.25;77.39;96431.84;5044282;28;19966;-69
2023/08/24 08:44:43;;;;;;;;;;;;;;;26.35;78.17;96421.84;5026949;28;19961;-68
2023/08/24 08:47:10;;;;;;;;;;;;;;;26.38;76.12;96408.56;5044292;28;20238;-69
2023/08/24 08:49:37;;;;;;;;;;;;;;;26.39;76.43;96406.66;5044410;28;19973;-71
2023/08/24 08:52:03;;;;;;;;;;;;;;;26.41;76.51;96410.59;5044342;28;19970;-71
2023/08/24 08:54:29;;;;;;;;;;;;;;;26.49;76.78;96412.47;5043089;28;19975;-71
2023/08/24 08:56:55;;;;;;;;;;;;;;;26.58;75.58;96409.78;5044702;28;20237;-72
2023/08/24 08:59:22;;;;;;;;;;;;;;;26.60;75.87;96417.53;5043598;28;19955;-73
2023/08/24 09:01:50;;;;;;;;;;;;;;;26.64;76.53;96421.16;5026219;28;19969;-82
2023/08/24 09:04:16;;;;;;;;;;;;;;;26.71;75.48;96402.59;5046479;28;19953;-82
2023/08/24 09:06:42;;;;;;;;;;;;;;;26.80;76.15;96414.13;5048410;28;19965;-83
2023/08/24 09:09:08;;;;;;;;;;;;;;;26.91;79.48;96419.94;5047796;28;20143;-83
2023/08/24 09:11:35;;;;;;;;;;;;;;;27.02;77.46;96390.75;5030606;28;19973;-84
2023/08/24 09:14:01;;;;;;;;;;;;;;;27.13;75.75;96383.84;5048016;28;19953;-83
2023/08/24 09:16:29;;;;;;;;;;;;;;;27.21;74.40;96376.84;5048409;28;20259;-76
2023/08/24 09:18:55;;;;;;;;;;;;;;;27.26;75.15;96376.69;5048186;28;19971;-69
2023/08/24 09:21:23;;;;;;;;;;;;;;;27.34;76.05;96375.84;5048015;28;20229;-69
2023/08/24 09:23:57;;;;;;;;;;;;;;;27.41;74.13;96361.84;5048059;28;19963;-68
2023/08/24 09:26:33;;;;;;;;;;;;;;;27.49;74.18;96361.00;5048037;28;19941;-68
2023/08/24 09:28:59;;;;;;;;;;;;;;;27.55;74.14;96359.69;5047456;28;19962;-69
2023/08/24 09:31:46;;;;;;;;;;;;;;;27.61;72.78;96358.34;5047896;28;19966;-68
2023/08/24 09:34:12;;;;;;;;;;;;;;;27.66;74.34;96360.84;5047655;28;19961;-76
2023/08/24 09:36:39;;;;;;;;;;;;;;;27.71;73.00;96363.31;5047680;28;19957;-77
2023/08/24 09:39:05;;;;;;;;;;;;;;;27.74;74.84;96365.38;5047480;28;20141;-76
2023/08/24 09:41:41;;;;;;;;;;;;;;;27.83;73.66;96357.19;5029828;28;19984;-77
2023/08/24 09:44:08;;;;;;;;;;;;;;;27.97;75.65;96364.22;5029252;28;20269;-76
2023/08/24 09:46:36;;;;;;;;;;;;;;;28.07;74.80;96359.19;5047607;28;19941;-75
2023/08/24 09:49:04;;;;;;;;;;;;;;;28.18;75.32;96353.38;5047852;28;20004;-76
2023/08/24 09:51:30;;;;;;;;;;;;;;;28.24;72.60;96344.75;5047412;28;19970;-76
2023/08/24 09:53:57;;;;;;;;;;;;;;;28.28;71.28;96326.75;5047129;28;19960;-80
2023/08/24 09:56:25;;;;;;;;;;;;;;;28.37;73.09;96334.78;5047156;28;19962;-81
2023/08/24 09:58:53;;;;;;;;;;;;;;;28.43;71.80;96321.84;5029359;28;20273;-83
2023/08/24 10:01:19;;;;;;;;;;;;;;;28.46;72.27;96331.97;5047155;28;20026;-81
2023/08/24 10:03:46;;;;;;;;;;;;;;;28.48;71.36;96327.81;5047304;28;20225;-82
2023/08/24 10:06:12;;;;;;;;;;;;;;;28.54;71.41;96323.78;5047350;28;19961;-82
2023/08/24 10:08:45;;;;;;;;;;;;;;;28.60;70.70;96307.38;5047194;28;19955;-82
2023/08/24 10:11:13;;;;;;;;;;;;;;;28.59;72.58;96313.91;5047123;28;19962;-80
2023/08/24 10:13:41;;;;;;;;;;;;;;;28.61;69.64;96293.53;5046731;28;19945;-76
2023/08/24 10:16:08;;;;;;;;;;;;;;;28.71;72.67;96313.91;5045627;28;19971;-76
2023/08/24 10:18:34;;;;;;;;;;;;;;;28.89;71.63;96315.19;5047073;28;20149;-76
2023/08/24 10:21:00;;;;;;;;;;;;;;;29.05;72.14;96315.31;5046722;28;19962;-76
2023/08/24 10:23:28;;;;;;;;;;;;;;;29.12;68.78;96283.13;5047012;28;20154;-76
2023/08/24 10:25:55;;;;;;;;;;;;;;;29.22;70.99;96292.66;5046937;28;19965;-76
2023/08/24 10:28:23;;;;;;;;;;;;;;;29.28;68.46;96285.13;5046697;28;19966;-77
2023/08/24 10:30:49;;;;;;;;;;;;;;;29.32;68.75;96284.09;5046685;28;19964;-80
2023/08/24 10:33:16;;;;;;;;;;;;;;;29.35;67.44;96279.91;5028552;28;19976;-71
2023/08/24 10:35:43;;;;;;;;;;;;;;;29.44;68.89;96287.84;5046543;28;19959;-71
2023/08/24 10:38:22;;;;;;;;;;;;;;;29.51;66.97;96279.97;5046294;28;19972;-71
2023/08/24 10:40:48;;;;;;;;;;;;;;;29.53;68.54;96289.28;5046604;28;20697;-71
2023/08/24 10:43:13;;;;;;;;;;;;;;;29.50;68.77;96290.00;5045917;28;19950;-71
2023/08/24 10:45:58;;;;;;;;;;;;;;;29.55;68.74;96276.22;5046265;28;19965;-71
2023/08/24 10:48:28;;;;;;;;;;;;;;;29.65;68.60;96274.94;5046391;28;19953;-73
2023/08/24 10:51:12;;;;;;;;;;;;;;;29.78;69.29;96274.88;5046139;28;19967;-76
2023/08/24 10:53:39;;;;;;;;;;;;;;;29.88;68.72;96280.59;5027967;28;19971;-76
2023/08/24 10:56:12;;;;;;;;;;;;;;;29.99;67.17;96267.34;5046256;28;19966;-76
2023/08/24 10:58:37;;;;;;;;;;;;;;;30.12;68.22;96263.41;5045584;28;19946;-75
2023/08/24 11:01:03;;;;;;;;;;;;;;;30.24;67.19;96259.03;5045647;28;19962;-75
2023/08/24 11:03:33;;;;;;;;;;;;;;;30.37;66.12;96246.22;5046303;28;20039;-74
2023/08/24 11:05:59;;;;;;;;;;;;;;;30.52;66.47;96245.41;5045880;28;19957;-85
2023/08/24 11:08:43;;;;;;;;;;;;;;;30.73;66.65;96247.81;5045794;28;20132;-78
2023/08/24 11:11:22;;;;;;;;;;;;;;;30.87;63.79;96236.50;5045861;28;19964;-76
2023/08/24 11:14:10;;;;;;;;;;;;;;;30.98;66.79;96244.88;5046133;28;19959;-76
2023/08/24 11:16:43;;;;;;;;;;;;;;;31.08;61.56;96217.19;5034835;28;19959;-76
2023/08/24 11:19:10;;;;;;;;;;;;;;;31.15;62.99;96230.91;5045813;28;19962;-77
2023/08/24 11:21:36;;;;;;;;;;;;;;;31.19;63.17;96223.63;5045455;28;19964;-77
2023/08/24 11:24:02;;;;;;;;;;;;;;;31.27;64.35;96233.47;5046086;28;19967;-77
2023/08/24 11:26:29;;;;;;;;;;;;;;;31.32;63.27;96224.25;5045335;28;19957;-72
2023/08/24 11:28:57;;;;;;;;;;;;;;;31.44;64.04;96226.06;5045885;28;19962;-80
2023/08/24 11:31:26;;;;;;;;;;;;;;;31.58;64.10;96223.59;5045795;28;19960;-80
2023/08/24 11:33:56;;;;;;;;;;;;;;;31.72;64.11;96221.13;5045582;28;20017;-81
2023/08/24 11:36:23;;;;;;;;;;;;;;;31.92;64.63;96221.88;5045577;28;19960;-80
2023/08/24 11:38:52;;;;;;;;;;;;;;;32.09;63.40;96217.91;5045530;28;19962;-79
2023/08/24 11:41:19;;;;;;;;;;;;;;;32.11;58.19;96204.00;5027260;28;19964;-80
2023/08/24 11:43:45;;;;;;;;;;;;;;;31.99;59.21;96204.19;5045479;28;19983;-71
2023/08/24 11:46:12;;;;;;;;;;;;;;;31.79;61.49;96209.63;5045243;28;20148;-73
2023/08/24 11:48:39;;;;;;;;;;;;;;;31.81;63.42;96212.75;5045427;28;19959;-71
2023/08/24 11:51:08;;;;;;;;;;;;;;;31.83;62.55;96204.25;5027302;28;19968;-74
2023/08/24 11:53:40;;;;;;;;;;;;;;;31.93;63.58;96212.56;5044886;28;19974;-73
2023/08/24 11:56:07;;;;;;;;;;;;;;;32.14;62.58;96197.81;5045029;28;19961;-73
2023/08/24 11:58:33;;;;;;;;;;;;;;;32.21;60.96;96200.63;5045363;28;19956;-74
2023/08/24 12:01:00;;;;;;;;;;;;;;;32.33;59.94;96188.78;5044596;28;19962;-79
2023/08/24 12:03:26;;;;;;;;;;;;;;;32.45;60.23;96190.53;5045042;28;19981;-76
2023/08/24 12:05:52;;;;;;;;;;;;;;;32.54;60.14;96189.13;5045107;28;20235;-80
2023/08/24 12:08:17;;;;;;;;;;;;;;;32.75;62.46;96187.81;5044987;28;20288;-80
2023/08/24 12:10:44;;;;;;;;;;;;;;;32.97;61.16;96186.16;5045254;28;19948;-80
2023/08/24 12:13:11;;;;;;;;;;;;;;;33.20;58.85;96177.91;5044895;28;19964;-80
2023/08/24 12:15:37;;;;;;;;;;;;;;;33.23;58.05;96177.16;5027263;28;20170;-80
2023/08/24 12:18:10;;;;;;;;;;;;;;;33.35;58.52;96182.34;5044901;28;19988;-80
2023/08/24 12:20:36;;;;;;;;;;;;;;;33.41;56.61;96168.41;5044566;28;19963;-73
2023/08/24 12:23:02;;;;;;;;;;;;;;;33.53;56.91;96165.41;5044642;28;20135;-73
2023/08/24 12:25:28;;;;;;;;;;;;;;;33.67;56.17;96157.41;5044881;28;19955;-72
2023/08/24 12:28:13;;;;;;;;;;;;;;;33.59;54.32;96142.16;5044626;28;20000;-73
2023/08/24 12:30:46;;;;;;;;;;;;;;;33.57;55.93;96141.75;5026937;28;19963;-73
2023/08/24 12:33:22;;;;;;;;;;;;;;;33.65;56.84;96146.13;5044615;28;19960;-73
2023/08/24 12:35:48;;;;;;;;;;;;;;;33.73;55.09;96139.59;5044286;28;19960;-73
2023/08/24 12:38:14;;;;;;;;;;;;;;;33.79;57.05;96139.22;5043807;28;19963;-71
2023/08/24 12:40:40;;;;;;;;;;;;;;;33.70;53.11;96123.22;5044121;28;20005;-71
2023/08/24 12:43:06;;;;;;;;;;;;;;;33.67;54.54;96118.56;5044706;28;19992;-72